Time;durP1;ratioP1;P1;durP2;ratioP2;P2;SDS_P1;SDS_P2;PMS_P1;PMS_P2;Temp;Humidity;BMP_temperature;BMP_pressure;BME280_temperature;BME280_humidity;BME280_pressure;Samples;Min_cycle;Max_cycle;Signal;HPM_P1;HPM_P2
2024/01/17 00:00:49;;;;;;;7.00;4.63;;;;;;;;;;6116659;23;20461;-84
2024/01/17 00:03:16;;;;;;;7.00;4.80;;;;;;;;;;6118223;23;20053;-84
2024/01/17 00:05:45;;;;;;;9.77;5.40;;;;;;;;;;6140802;23;20025;-84
2024/01/17 00:08:12;;;;;;;10.13;4.85;;;;;;;;;;6145774;23;20097;-84
2024/01/17 00:10:39;;;;;;;7.25;4.70;;;;;;;;;;6140087;23;20021;-84
2024/01/17 00:13:06;;;;;;;9.77;4.72;;;;;;;;;;6118492;23;20014;-84
2024/01/17 00:15:34;;;;;;;7.80;5.28;;;;;;;;;;6116908;23;20027;-84
2024/01/17 00:18:01;;;;;;;10.00;5.10;;;;;;;;;;6120965;23;20025;-84
2024/01/17 00:20:28;;;;;;;9.52;5.45;;;;;;;;;;6095081;23;20032;-84
2024/01/17 00:22:56;;;;;;;7.60;4.88;;;;;;;;;;6094564;23;20025;-84
2024/01/17 00:25:23;;;;;;;7.95;5.20;;;;;;;;;;6096105;23;20072;-84
2024/01/17 00:27:50;;;;;;;7.22;5.35;;;;;;;;;;6118117;23;20045;-84
2024/01/17 00:30:17;;;;;;;9.10;5.90;;;;;;;;;;6092415;23;20147;-84
2024/01/17 00:32:45;;;;;;;10.18;5.30;;;;;;;;;;6117483;23;20018;-84
2024/01/17 00:35:12;;;;;;;7.85;5.55;;;;;;;;;;6094837;23;20092;-84
2024/01/17 00:37:39;;;;;;;7.93;6.15;;;;;;;;;;6092794;23;20022;-84
2024/01/17 00:40:07;;;;;;;10.15;6.07;;;;;;;;;;6093852;23;20049;-84
2024/01/17 00:42:34;;;;;;;10.18;6.28;;;;;;;;;;6139498;23;20119;-84
2024/01/17 00:45:03;;;;;;;14.50;6.47;;;;;;;;;;6118294;23;20021;-84
2024/01/17 00:47:31;;;;;;;15.90;6.88;;;;;;;;;;6118364;23;20485;-84
2024/01/17 00:49:58;;;;;;;9.05;5.65;;;;;;;;;;6094125;23;20461;-84
2024/01/17 00:52:25;;;;;;;10.97;6.30;;;;;;;;;;6094682;23;20045;-84
2024/01/17 00:54:52;;;;;;;10.25;6.68;;;;;;;;;;6141384;23;20687;-83
2024/01/17 00:57:19;;;;;;;12.98;7.00;;;;;;;;;;6143399;23;20013;-84
2024/01/17 00:59:47;;;;;;;11.50;7.47;;;;;;;;;;6116466;23;20017;-84
2024/01/17 01:02:14;;;;;;;11.15;7.70;;;;;;;;;;6117497;23;20017;-84
2024/01/17 01:04:41;;;;;;;13.25;7.95;;;;;;;;;;6116434;23;20013;-84
2024/01/17 01:07:08;;;;;;;15.25;7.40;;;;;;;;;;6093906;23;20020;-84
2024/01/17 01:09:35;;;;;;;15.65;8.40;;;;;;;;;;6092165;23;20021;-83
2024/01/17 01:12:02;;;;;;;14.35;8.38;;;;;;;;;;6117951;23;20462;-84
2024/01/17 01:14:30;;;;;;;13.57;8.15;;;;;;;;;;6096076;23;20567;-84
2024/01/17 01:17:00;;;;;;;15.40;8.23;;;;;;;;;;6118973;23;20017;-84
2024/01/17 01:19:27;;;;;;;19.15;8.40;;;;;;;;;;6144002;23;20021;-84
2024/01/17 01:21:54;;;;;;;14.25;8.60;;;;;;;;;;6117051;23;20021;-84
2024/01/17 01:24:22;;;;;;;13.63;8.30;;;;;;;;;;6096970;23;20018;-84
2024/01/17 01:26:50;;;;;;;17.58;8.18;;;;;;;;;;6115975;23;20049;-84
2024/01/17 01:29:17;;;;;;;12.88;8.75;;;;;;;;;;6118968;23;20031;-84
2024/01/17 01:31:44;;;;;;;15.10;8.82;;;;;;;;;;6092758;23;20016;-84
2024/01/17 01:34:11;;;;;;;14.60;9.77;;;;;;;;;;6119348;23;20378;-84
2024/01/17 01:36:38;;;;;;;14.77;8.90;;;;;;;;;;6115910;23;20556;-84
2024/01/17 01:39:06;;;;;;;14.30;7.72;;;;;;;;;;6119515;23;20407;-84
2024/01/17 01:41:34;;;;;;;18.33;9.02;;;;;;;;;;6093168;23;20359;-84
2024/01/17 01:44:01;;;;;;;11.70;8.65;;;;;;;;;;6095186;23;20021;-84
2024/01/17 01:46:29;;;;;;;12.18;8.18;;;;;;;;;;6143002;23;20029;-84
2024/01/17 01:48:57;;;;;;;14.10;8.93;;;;;;;;;;6116204;23;20296;-84
2024/01/17 01:51:25;;;;;;;13.00;8.80;;;;;;;;;;6093894;23;20028;-84
2024/01/17 01:53:53;;;;;;;11.55;8.60;;;;;;;;;;6093144;23;20402;-84
2024/01/17 01:56:21;;;;;;;15.02;10.30;;;;;;;;;;6094967;23;20010;-84
2024/01/17 01:58:49;;;;;;;16.20;10.18;;;;;;;;;;6092540;23;20442;-84
2024/01/17 02:01:16;;;;;;;13.82;9.93;;;;;;;;;;6095837;23;20021;-84
2024/01/17 02:03:44;;;;;;;17.08;10.18;;;;;;;;;;6093332;23;20478;-84
2024/01/17 02:06:13;;;;;;;12.75;9.57;;;;;;;;;;6094519;23;20072;-84
2024/01/17 02:08:40;;;;;;;17.10;10.43;;;;;;;;;;6117764;23;20437;-84
2024/01/17 02:11:08;;;;;;;14.75;10.38;;;;;;;;;;6094003;23;20009;-84
2024/01/17 02:13:34;;;;;;;15.13;10.05;;;;;;;;;;6093109;23;20057;-84
2024/01/17 02:16:02;;;;;;;15.73;10.27;;;;;;;;;;6096241;23;20029;-84
2024/01/17 02:18:29;;;;;;;14.52;10.57;;;;;;;;;;6097095;23;20025;-84
2024/01/17 02:21:02;;;;;;;16.10;10.73;;;;;;;;;;6099607;23;20025;-84
2024/01/17 02:23:31;;;;;;;18.00;11.27;;;;;;;;;;6121332;23;20013;-84
2024/01/17 02:25:59;;;;;;;16.33;10.05;;;;;;;;;;6121814;23;20049;-84
2024/01/17 02:28:27;;;;;;;15.02;11.50;;;;;;;;;;6120886;23;20053;-84
2024/01/17 02:30:56;;;;;;;17.27;12.38;;;;;;;;;;6120409;23;20013;-84
2024/01/17 02:33:24;;;;;;;16.63;12.15;;;;;;;;;;6121314;23;20017;-83
2024/01/17 02:35:51;;;;;;;19.02;12.07;;;;;;;;;;6094003;23;20017;-85
2024/01/17 02:38:18;;;;;;;16.88;11.88;;;;;;;;;;6095932;23;20025;-84
2024/01/17 02:40:45;;;;;;;15.48;12.38;;;;;;;;;;6095105;23;20096;-85
2024/01/17 02:43:11;;;;;;;17.80;11.80;;;;;;;;;;6096252;23;20032;-84
2024/01/17 02:45:39;;;;;;;18.23;12.40;;;;;;;;;;6117519;23;20100;-84
2024/01/17 02:48:06;;;;;;;17.83;12.55;;;;;;;;;;6094649;23;20443;-84
2024/01/17 02:50:36;;;;;;;19.38;12.95;;;;;;;;;;6143966;23;20017;-84
2024/01/17 02:53:04;;;;;;;18.73;12.38;;;;;;;;;;6142999;23;20025;-84
2024/01/17 02:55:31;;;;;;;19.40;13.00;;;;;;;;;;6095677;23;20334;-84
2024/01/17 02:58:00;;;;;;;17.70;12.93;;;;;;;;;;6140824;23;20021;-84
2024/01/17 03:00:27;;;;;;;16.75;12.35;;;;;;;;;;6118126;23;20017;-84
2024/01/17 03:02:54;;;;;;;19.75;12.52;;;;;;;;;;6092864;23;20021;-84
2024/01/17 03:05:22;;;;;;;18.25;12.95;;;;;;;;;;6120551;23;20026;-84
2024/01/17 03:07:49;;;;;;;21.13;12.60;;;;;;;;;;6093015;23;20518;-84
2024/01/17 03:10:16;;;;;;;20.08;12.38;;;;;;;;;;6096574;23;20709;-84
2024/01/17 03:12:45;;;;;;;18.50;12.57;;;;;;;;;;6093504;23;20463;-84
2024/01/17 03:15:12;;;;;;;17.27;12.85;;;;;;;;;;6096701;23;20013;-84
2024/01/17 03:17:40;;;;;;;15.60;11.25;;;;;;;;;;6090851;23;20022;-84
2024/01/17 03:20:10;;;;;;;20.90;12.68;;;;;;;;;;6096435;23;20116;-84
2024/01/17 03:22:38;;;;;;;20.15;13.15;;;;;;;;;;6094993;23;20022;-84
2024/01/17 03:25:08;;;;;;;20.38;12.90;;;;;;;;;;6144682;23;20025;-84
2024/01/17 03:27:35;;;;;;;17.05;12.48;;;;;;;;;;6093232;23;20028;-84
2024/01/17 03:30:03;;;;;;;20.27;13.37;;;;;;;;;;6094943;23;20017;-84
2024/01/17 03:32:31;;;;;;;19.08;13.00;;;;;;;;;;6095343;23;20056;-84
2024/01/17 03:34:59;;;;;;;19.30;13.23;;;;;;;;;;6144296;23;20080;-84
2024/01/17 03:37:27;;;;;;;16.55;12.18;;;;;;;;;;6094390;23;20009;-84
2024/01/17 03:39:54;;;;;;;18.58;12.57;;;;;;;;;;6092655;23;20028;-84
2024/01/17 03:42:20;;;;;;;17.60;11.95;;;;;;;;;;6116847;23;20026;-84
2024/01/17 03:44:46;;;;;;;17.77;11.73;;;;;;;;;;6092092;23;20021;-84
2024/01/17 03:47:14;;;;;;;23.55;12.77;;;;;;;;;;6119116;23;20009;-84
2024/01/17 03:49:41;;;;;;;19.23;12.07;;;;;;;;;;6092336;23;20028;-84
2024/01/17 03:52:08;;;;;;;18.42;11.68;;;;;;;;;;6094435;23;20017;-84
2024/01/17 03:54:38;;;;;;;18.00;12.60;;;;;;;;;;6117204;23;20833;-84
2024/01/17 03:57:08;;;;;;;20.80;12.55;;;;;;;;;;6094906;23;20371;-84
2024/01/17 03:59:35;;;;;;;17.02;11.98;;;;;;;;;;6093493;23;20433;-85
2024/01/17 04:02:02;;;;;;;19.20;12.68;;;;;;;;;;6119205;23;20017;-84
2024/01/17 04:04:31;;;;;;;18.98;13.05;;;;;;;;;;6118671;23;20056;-84
2024/01/17 04:06:58;;;;;;;20.25;12.75;;;;;;;;;;6095302;23;20509;-84
2024/01/17 04:09:26;;;;;;;16.63;12.52;;;;;;;;;;6119203;23;20025;-84
2024/01/17 04:11:53;;;;;;;16.20;11.98;;;;;;;;;;6092769;23;20174;-84
2024/01/17 04:14:20;;;;;;;15.88;12.63;;;;;;;;;;6119523;23;20018;-84
2024/01/17 04:16:47;;;;;;;19.65;13.57;;;;;;;;;;6092665;23;20024;-84
2024/01/17 04:19:14;;;;;;;17.13;12.38;;;;;;;;;;6121294;23;20596;-84
2024/01/17 04:21:42;;;;;;;17.25;12.52;;;;;;;;;;6118250;23;20436;-84
2024/01/17 04:24:09;;;;;;;18.15;12.10;;;;;;;;;;6144940;23;20025;-84
2024/01/17 04:26:36;;;;;;;17.52;11.63;;;;;;;;;;6093593;23;20017;-84
2024/01/17 04:29:03;;;;;;;18.08;12.32;;;;;;;;;;6120898;23;20025;-84
2024/01/17 04:31:31;;;;;;;21.27;12.05;;;;;;;;;;6144810;23;20015;-84
2024/01/17 04:34:02;;;;;;;15.90;10.98;;;;;;;;;;6144613;23;20024;-84
2024/01/17 04:36:32;;;;;;;20.17;11.70;;;;;;;;;;6095427;23;20022;-84
2024/01/17 04:39:00;;;;;;;16.10;10.48;;;;;;;;;;6094946;23;20465;-84
2024/01/17 04:41:27;;;;;;;16.90;11.20;;;;;;;;;;6095124;23;20025;-84
2024/01/17 04:43:55;;;;;;;13.60;10.98;;;;;;;;;;6092206;23;20036;-84
2024/01/17 04:46:22;;;;;;;19.33;11.30;;;;;;;;;;6094732;23;20021;-85
2024/01/17 04:48:50;;;;;;;18.63;11.20;;;;;;;;;;6115520;23;20054;-84
2024/01/17 04:51:18;;;;;;;16.80;11.07;;;;;;;;;;6142112;23;20025;-84
2024/01/17 04:53:46;;;;;;;15.98;11.23;;;;;;;;;;6117597;23;20053;-84
2024/01/17 04:56:15;;;;;;;15.43;10.60;;;;;;;;;;6120876;23;20573;-84
2024/01/17 04:58:45;;;;;;;17.45;11.68;;;;;;;;;;6091230;23;20029;-84
2024/01/17 05:01:13;;;;;;;14.48;10.40;;;;;;;;;;6117708;23;20029;-84
2024/01/17 05:03:43;;;;;;;13.57;10.52;;;;;;;;;;6117084;23;20017;-84
2024/01/17 05:06:10;;;;;;;13.38;10.07;;;;;;;;;;6094415;23;20021;-84
2024/01/17 05:08:37;;;;;;;12.18;10.25;;;;;;;;;;6090825;23;20028;-84
2024/01/17 05:11:05;;;;;;;15.23;10.02;;;;;;;;;;6094050;23;20019;-84
2024/01/17 05:13:33;;;;;;;15.13;10.10;;;;;;;;;;6094087;23;20108;-84
2024/01/17 05:16:01;;;;;;;;;;;;;;;;;;6145248;23;20064;-84
2024/01/17 05:18:28;;;;;;;15.50;10.80;;;;;;;;;;6120051;23;19916;-84
2024/01/17 05:20:55;;;;;;;16.95;10.65;;;;;;;;;;6093627;23;20076;-84
2024/01/17 05:23:22;;;;;;;17.40;11.18;;;;;;;;;;6095843;23;20236;-84
2024/01/17 05:25:50;;;;;;;15.75;10.90;;;;;;;;;;6094233;23;20443;-84
2024/01/17 05:28:17;;;;;;;16.08;10.50;;;;;;;;;;6120221;23;20080;-84
2024/01/17 05:30:44;;;;;;;14.23;10.65;;;;;;;;;;6118821;23;20084;-84
2024/01/17 05:33:11;;;;;;;15.20;10.50;;;;;;;;;;6118805;23;20438;-84
2024/01/17 05:35:39;;;;;;;14.43;10.45;;;;;;;;;;6115617;23;20013;-84
2024/01/17 05:38:06;;;;;;;12.15;9.52;;;;;;;;;;6118132;23;20621;-84
2024/01/17 05:40:33;;;;;;;18.45;10.15;;;;;;;;;;6117110;23;20025;-85
2024/01/17 05:43:00;;;;;;;14.45;9.40;;;;;;;;;;6117603;23;20105;-84
2024/01/17 05:45:27;;;;;;;13.02;10.02;;;;;;;;;;6144093;23;20036;-84
2024/01/17 05:47:55;;;;;;;16.00;11.20;;;;;;;;;;6089479;23;20022;-85
2024/01/17 05:50:22;;;;;;;14.18;9.88;;;;;;;;;;6120247;23;20030;-85
2024/01/17 05:52:48;;;;;;;13.45;10.13;;;;;;;;;;6096185;23;20017;-85
2024/01/17 05:55:15;;;;;;;14.67;10.50;;;;;;;;;;6095924;23;20077;-85
2024/01/17 05:57:43;;;;;;;16.00;10.87;;;;;;;;;;6094338;23;20029;-86
2024/01/17 06:00:11;;;;;;;16.65;9.93;;;;;;;;;;6098442;23;20100;-85
2024/01/17 06:02:38;;;;;;;15.80;9.70;;;;;;;;;;6095898;23;20084;-85
2024/01/17 06:05:06;;;;;;;14.10;10.65;;;;;;;;;;6123088;23;20104;-85
2024/01/17 06:07:33;;;;;;;13.82;9.80;;;;;;;;;;6096092;23;20036;-85
2024/01/17 06:10:00;;;;;;;16.33;9.73;;;;;;;;;;6146845;23;20013;-85
2024/01/17 06:12:28;;;;;;;13.48;9.93;;;;;;;;;;6146737;23;20095;-85
2024/01/17 06:14:55;;;;;;;13.47;10.47;;;;;;;;;;6096312;23;20664;-85
2024/01/17 06:17:25;;;;;;;15.13;9.88;;;;;;;;;;6098247;23;20190;-85
2024/01/17 06:19:52;;;;;;;12.75;10.15;;;;;;;;;;6096124;23;20045;-85
2024/01/17 06:22:19;;;;;;;13.77;9.82;;;;;;;;;;6123224;23;20014;-86
2024/01/17 06:24:47;;;;;;;11.23;9.88;;;;;;;;;;6096679;23;20022;-85
2024/01/17 06:27:16;;;;;;;15.77;10.02;;;;;;;;;;6098091;23;20017;-85
2024/01/17 06:29:45;;;;;;;13.27;9.63;;;;;;;;;;6095751;23;20342;-85
2024/01/17 06:32:12;;;;;;;14.98;9.35;;;;;;;;;;6098780;23;20013;-85
2024/01/17 06:34:40;;;;;;;15.32;11.25;;;;;;;;;;6095587;23;20028;-85
2024/01/17 06:37:07;;;;;;;15.23;10.20;;;;;;;;;;6096979;23;20473;-85
2024/01/17 06:39:34;;;;;;;13.23;9.60;;;;;;;;;;6095601;23;20060;-85
2024/01/17 06:42:02;;;;;;;13.17;9.30;;;;;;;;;;6121844;23;20088;-85
2024/01/17 06:44:31;;;;;;;18.48;10.02;;;;;;;;;;6122456;23;20056;-85
2024/01/17 06:47:00;;;;;;;15.80;10.23;;;;;;;;;;6097398;23;20021;-85
2024/01/17 06:49:28;;;;;;;15.90;9.90;;;;;;;;;;6096007;23;20021;-85
2024/01/17 06:51:56;;;;;;;12.93;10.23;;;;;;;;;;6095055;23;20439;-85
2024/01/17 06:54:23;;;;;;;16.63;10.82;;;;;;;;;;6121831;23;20351;-86
2024/01/17 06:56:50;;;;;;;15.20;10.80;;;;;;;;;;6095924;23;20024;-85
2024/01/17 06:59:17;;;;;;;13.07;10.47;;;;;;;;;;6121614;23;20029;-86
2024/01/17 07:01:44;;;;;;;13.07;10.48;;;;;;;;;;6095194;23;20540;-86
2024/01/17 07:04:12;;;;;;;16.10;11.20;;;;;;;;;;6097443;23;20092;-85
2024/01/17 07:06:39;;;;;;;13.20;10.33;;;;;;;;;;6095225;23;20025;-86
2024/01/17 07:09:08;;;;;;;14.80;10.67;;;;;;;;;;6121780;23;20096;-85
2024/01/17 07:11:35;;;;;;;16.10;10.90;;;;;;;;;;6096006;23;20020;-86
2024/01/17 07:14:03;;;;;;;15.80;10.77;;;;;;;;;;6096897;23;20461;-85
2024/01/17 07:16:31;;;;;;;14.00;10.57;;;;;;;;;;6097200;23;20025;-85
2024/01/17 07:18:59;;;;;;;14.43;10.40;;;;;;;;;;6122192;23;20018;-85
2024/01/17 07:21:26;;;;;;;15.68;10.50;;;;;;;;;;6097262;23;20111;-85
2024/01/17 07:23:53;;;;;;;16.63;11.00;;;;;;;;;;6119163;23;20026;-85
2024/01/17 07:26:20;;;;;;;19.75;11.50;;;;;;;;;;6097444;23;20021;-85
2024/01/17 07:28:48;;;;;;;15.90;11.33;;;;;;;;;;6095046;23;20021;-85
2024/01/17 07:31:16;;;;;;;15.37;11.00;;;;;;;;;;6122746;23;20017;-85
2024/01/17 07:33:45;;;;;;;18.02;10.80;;;;;;;;;;6095390;23;20021;-85
2024/01/17 07:36:12;;;;;;;14.60;10.95;;;;;;;;;;6097230;23;20021;-85
2024/01/17 07:38:39;;;;;;;14.87;10.40;;;;;;;;;;6094278;23;20022;-85
2024/01/17 07:41:06;;;;;;;15.67;10.80;;;;;;;;;;6121170;23;20017;-85
2024/01/17 07:43:34;;;;;;;20.93;10.77;;;;;;;;;;6094762;23;20025;-85
2024/01/17 07:46:01;;;;;;;13.50;10.47;;;;;;;;;;6120786;23;20022;-86
2024/01/17 07:48:33;;;;;;;15.83;11.07;;;;;;;;;;6146409;23;20498;-85
2024/01/17 07:51:02;;;;;;;15.60;11.43;;;;;;;;;;6146903;23;20661;-86
2024/01/17 07:53:31;;;;;;;18.13;10.80;;;;;;;;;;6122112;23;20057;-85
2024/01/17 07:56:00;;;;;;;16.63;11.10;;;;;;;;;;6121611;23;20093;-85
2024/01/17 07:58:27;;;;;;;13.27;9.73;;;;;;;;;;6097068;23;20023;-85
2024/01/17 08:00:56;;;;;;;14.83;10.73;;;;;;;;;;6094255;23;20032;-85
2024/01/17 08:03:23;;;;;;;17.30;11.07;;;;;;;;;;6121270;23;20825;-86
2024/01/17 08:05:50;;;;;;;12.67;9.97;;;;;;;;;;6118846;23;20013;-85
2024/01/17 08:08:17;;;;;;;18.30;11.17;;;;;;;;;;6119801;23;20032;-86
2024/01/17 08:10:45;;;;;;;16.67;11.10;;;;;;;;;;6093920;23;20021;-86
2024/01/17 08:13:12;;;;;;;15.87;11.57;;;;;;;;;;6144774;23;20148;-86
2024/01/17 08:15:40;;;;;;;14.37;10.80;;;;;;;;;;6095359;23;20021;-88
2024/01/17 08:18:08;;;;;;;15.27;10.47;;;;;;;;;;6096435;23;20014;-88
2024/01/17 08:20:36;;;;;;;14.20;10.87;;;;;;;;;;6118474;23;20026;-88
2024/01/17 08:23:05;;;;;;;14.97;10.97;;;;;;;;;;6120470;23;20033;-88
2024/01/17 08:25:32;;;;;;;18.97;11.30;;;;;;;;;;6120408;23;20072;-88
2024/01/17 08:28:00;;;;;;;15.40;9.83;;;;;;;;;;6120288;23;20021;-88
2024/01/17 08:30:27;;;;;;;15.67;10.53;;;;;;;;;;6096592;23;20018;-88
2024/01/17 08:32:55;;;;;;;13.53;9.87;;;;;;;;;;6093316;23;20017;-88
2024/01/17 08:35:22;;;;;;;13.83;9.77;;;;;;;;;;6096416;23;20036;-88
2024/01/17 08:37:49;;;;;;;14.87;9.87;;;;;;;;;;6093800;23;20032;-88
2024/01/17 08:40:17;;;;;;;13.83;10.30;;;;;;;;;;6095860;23;20445;-88
2024/01/17 08:42:47;;;;;;;13.93;10.43;;;;;;;;;;6093699;23;20088;-88
2024/01/17 08:45:17;;;;;;;16.23;10.47;;;;;;;;;;6095750;23;20048;-86
2024/01/17 08:47:45;;;;;;;15.90;10.07;;;;;;;;;;6116910;23;20028;-86
2024/01/17 08:50:16;;;;;;;13.17;10.07;;;;;;;;;;6095817;23;20018;-86
2024/01/17 09:00:48;;;;;;;17.03;10.87;;;;;;;;;;5924724;24;20174;-85
2024/01/17 09:39:47;;;;;;;13.73;9.93;;;;;;;;;;6131933;23;20406;-85
2024/01/17 09:42:13;;;;;;;;;;;;;;;;;;6179501;23;20024;-85
2024/01/17 09:44:41;;;;;;;13.57;9.60;;;;;;;;;;6176759;23;19922;-85
2024/01/17 09:47:08;;;;;;;13.93;9.63;;;;;;;;;;6180359;23;20020;-84
2024/01/17 09:49:35;;;;;;;15.95;9.02;;;;;;;;;;6152284;23;20056;-85
2024/01/17 09:52:04;;;;;;;14.17;9.17;;;;;;;;;;6154655;23;20013;-85
2024/01/17 09:54:33;;;;;;;11.30;8.95;;;;;;;;;;6179134;23;20074;-85
2024/01/17 09:57:00;;;;;;;;;;;;;;;;;;6155348;23;20044;-85
2024/01/17 09:59:29;;;;;;;11.38;8.18;;;;;;;;;;6178755;23;20243;-85
2024/01/17 10:01:57;;;;;;;12.55;8.27;;;;;;;;;;6178337;23;20028;-85
2024/01/17 10:04:25;;;;;;;11.45;8.32;;;;;;;;;;6180145;23;20020;-85
2024/01/17 10:06:55;;;;;;;13.07;8.85;;;;;;;;;;6176851;23;20313;-85
2024/01/17 10:09:26;;;;;;;12.55;8.23;;;;;;;;;;6178325;23;20048;-85
2024/01/17 10:11:53;;;;;;;11.05;8.05;;;;;;;;;;6179099;23;20016;-85
2024/01/17 10:14:23;;;;;;;11.57;8.52;;;;;;;;;;6178801;23;20126;-85
2024/01/17 10:16:51;;;;;;;11.98;8.02;;;;;;;;;;6176128;23;20035;-85
2024/01/17 10:19:18;;;;;;;13.73;9.00;;;;;;;;;;6147828;23;20021;-85
2024/01/17 10:21:46;;;;;;;14.05;8.27;;;;;;;;;;6120622;23;20028;-85
2024/01/17 10:24:13;;;;;;;12.27;8.90;;;;;;;;;;6124075;23;20338;-85
2024/01/17 10:26:45;;;;;;;12.88;7.25;;;;;;;;;;6146584;23;20267;-86
2024/01/17 10:29:12;;;;;;;12.98;8.93;;;;;;;;;;6125403;23;20453;-85
2024/01/17 10:31:40;;;;;;;11.23;8.55;;;;;;;;;;6122333;23;20016;-85
2024/01/17 10:34:10;;;;;;;11.30;8.25;;;;;;;;;;6148571;23;20491;-85
2024/01/17 10:36:44;;;;;;;11.13;8.27;;;;;;;;;;6123566;23;20079;-85
2024/01/17 10:39:13;;;;;;;12.75;8.38;;;;;;;;;;6148824;23;20025;-87
2024/01/17 10:41:51;;;;;;;9.88;7.65;;;;;;;;;;6148713;23;20055;-85
2024/01/17 10:44:21;;;;;;;11.40;8.40;;;;;;;;;;6123204;23;20040;-85
2024/01/17 10:46:50;;;;;;;12.20;8.30;;;;;;;;;;6168336;23;20025;-85
2024/01/17 10:49:18;;;;;;;9.93;7.93;;;;;;;;;;6146944;23;20017;-86
2024/01/17 10:52:03;;;;;;;10.38;7.57;;;;;;;;;;6147624;23;20016;-85
2024/01/17 10:54:34;;;;;;;12.68;8.48;;;;;;;;;;6172753;23;20492;-85
2024/01/17 10:57:05;;;;;;;11.70;8.43;;;;;;;;;;6125493;23;20017;-85
2024/01/17 10:59:33;;;;;;;10.05;7.82;;;;;;;;;;6123993;23;20013;-85
2024/01/17 11:02:01;;;;;;;13.27;8.25;;;;;;;;;;6124268;23;20071;-85
2024/01/17 11:04:31;;;;;;;13.23;8.30;;;;;;;;;;6124953;23;20053;-85
2024/01/17 11:06:59;;;;;;;12.80;7.80;;;;;;;;;;6172756;23;20021;-85
2024/01/17 11:09:26;;;;;;;11.30;7.38;;;;;;;;;;6120956;23;20666;-85
2024/01/17 11:11:53;;;;;;;12.15;8.68;;;;;;;;;;6120152;23;20341;-85
2024/01/17 11:14:21;;;;;;;11.55;7.90;;;;;;;;;;6126410;23;20020;-85
2024/01/17 11:16:59;;;;;;;11.67;8.20;;;;;;;;;;6119520;23;20024;-85
2024/01/17 11:19:28;;;;;;;17.02;8.98;;;;;;;;;;6127092;23;20021;-85
2024/01/17 12:28:06;;;;;;;11.15;7.75;;;;;;;;;;6145617;23;20108;-89
2024/01/17 12:30:34;;;;;;;11.00;7.18;;;;;;;;;;6091707;23;20028;-90
2024/01/17 12:33:00;;;;;;;9.23;7.72;;;;;;;;;;6087395;23;20021;-91
2024/01/17 12:35:26;;;;;;;9.10;6.88;;;;;;;;;;6089636;23;20028;-90
2024/01/17 12:37:52;;;;;;;11.32;7.97;;;;;;;;;;6085831;23;20053;-89
2024/01/17 12:40:18;;;;;;;9.93;7.35;;;;;;;;;;6065151;23;20045;-89
2024/01/17 12:42:47;;;;;;;9.82;6.75;;;;;;;;;;6063976;23;20023;-90
2024/01/17 12:45:13;;;;;;;9.05;7.03;;;;;;;;;;6115102;23;20025;-90
2024/01/17 12:47:40;;;;;;;10.38;7.03;;;;;;;;;;6088615;23;20033;-90
2024/01/17 12:50:08;;;;;;;10.77;6.90;;;;;;;;;;6116207;23;20161;-90
2024/01/17 12:52:35;;;;;;;9.52;6.95;;;;;;;;;;6064280;23;20028;-90
2024/01/17 12:55:02;;;;;;;11.02;6.85;;;;;;;;;;6067400;23;20053;-90
2024/01/17 12:57:29;;;;;;;10.52;7.53;;;;;;;;;;6089381;23;20024;-91
2024/01/17 12:59:56;;;;;;;11.48;7.30;;;;;;;;;;6069161;23;20024;-90
2024/01/17 13:02:22;;;;;;;10.15;6.57;;;;;;;;;;6099794;23;20025;-91
2024/01/17 13:05:08;;;;;;;9.88;6.68;;;;;;;;;;6090154;23;20017;-89
2024/01/17 13:07:34;;;;;;;9.32;6.85;;;;;;;;;;6090810;23;20017;-87
2024/01/17 13:10:14;;;;;;;13.07;8.02;;;;;;;;;;6117383;23;20076;-87
2024/01/17 13:12:40;;;;;;;10.43;7.78;;;;;;;;;;6066870;23;20026;-89
2024/01/17 13:15:12;;;;;;;10.48;6.25;;;;;;;;;;6117146;23;20017;-88
2024/01/17 13:17:38;;;;;;;8.43;6.97;;;;;;;;;;6090180;23;20018;-90
2024/01/17 13:20:11;;;;;;;8.60;6.80;;;;;;;;;;6042844;23;20089;-89
2024/01/17 13:22:38;;;;;;;10.48;6.60;;;;;;;;;;6084965;23;20060;-90
2024/01/17 13:25:04;;;;;;;11.55;7.22;;;;;;;;;;6086481;23;20048;-89
2024/01/17 13:27:32;;;;;;;8.80;6.57;;;;;;;;;;6063468;23;20022;-89
2024/01/17 19:07:50;;;;;;;15.68;11.00;;;;;;;;;;6001895;23;20069;-84
2024/01/17 19:35:15;;;;;;;19.40;12.77;;;;;;;;;;5527852;25;20034;-85
2024/01/17 20:10:00;;;;;;;;;;;;;;;;;;;;;
2024/01/17 20:12:56;;;;;;;22.80;15.52;;;;;;;;;;5807525;24;20019;-84
2024/01/17 21:29:20;;;;;;;20.00;15.13;;;;;;;;;;6143639;23;20786;-84
2024/01/17 21:31:48;;;;;;;24.58;15.52;;;;;;;;;;6072143;23;20021;-84
2024/01/17 21:34:15;;;;;;;24.27;16.77;;;;;;;;;;6146673;23;20017;-85
2024/01/17 21:36:42;;;;;;;19.50;16.15;;;;;;;;;;6144073;23;20017;-84
2024/01/17 21:39:10;;;;;;;22.30;15.70;;;;;;;;;;6175082;23;20017;-85
2024/01/17 21:41:38;;;;;;;20.90;16.65;;;;;;;;;;6121006;23;20354;-85
2024/01/17 21:44:07;;;;;;;20.73;15.32;;;;;;;;;;6100288;23;20060;-84
2024/01/17 21:46:40;;;;;;;21.80;16.33;;;;;;;;;;6122798;23;20020;-84
2024/01/17 21:49:07;;;;;;;21.15;15.27;;;;;;;;;;6146971;23;20017;-85
2024/01/17 21:51:37;;;;;;;19.58;15.73;;;;;;;;;;6121847;23;20029;-85
2024/01/17 21:54:05;;;;;;;23.70;16.80;;;;;;;;;;6124393;23;20097;-85
2024/01/17 21:56:33;;;;;;;21.90;16.60;;;;;;;;;;6147956;23;20032;-84
2024/01/17 21:59:01;;;;;;;21.33;15.80;;;;;;;;;;6174112;23;20021;-84
2024/01/17 22:01:28;;;;;;;22.48;16.05;;;;;;;;;;6097967;23;20016;-84
2024/01/17 22:03:55;;;;;;;20.80;16.25;;;;;;;;;;6095995;23;20068;-85
2024/01/17 22:06:23;;;;;;;21.75;15.73;;;;;;;;;;6097846;23;20017;-84
2024/01/17 22:08:50;;;;;;;21.60;15.68;;;;;;;;;;6096129;23;20021;-85
2024/01/17 22:11:17;;;;;;;23.20;16.00;;;;;;;;;;6098009;23;20015;-85
2024/01/17 22:13:45;;;;;;;19.50;15.07;;;;;;;;;;6097778;23;20547;-85
2024/01/17 22:16:12;;;;;;;22.80;15.23;;;;;;;;;;6121262;23;20095;-85
2024/01/17 22:18:39;;;;;;;22.02;14.95;;;;;;;;;;6140818;23;20017;-85
2024/01/17 22:21:07;;;;;;;22.20;16.02;;;;;;;;;;6152767;23;20016;-85
2024/01/17 22:23:33;;;;;;;20.73;16.50;;;;;;;;;;6127384;23;20017;-85
2024/01/17 22:26:00;;;;;;;20.70;16.30;;;;;;;;;;6153123;23;20024;-85
2024/01/17 22:28:28;;;;;;;21.52;16.00;;;;;;;;;;6147325;23;20021;-84
2024/01/17 22:30:55;;;;;;;23.92;16.80;;;;;;;;;;6122712;23;20021;-84
2024/01/17 22:33:22;;;;;;;25.48;17.70;;;;;;;;;;6176437;23;20017;-85
2024/01/17 22:35:49;;;;;;;24.63;17.58;;;;;;;;;;6148464;23;20013;-84
2024/01/17 22:38:16;;;;;;;25.73;17.17;;;;;;;;;;6101048;23;20354;-84
2024/01/17 22:40:44;;;;;;;21.95;16.10;;;;;;;;;;6100040;23;20032;-85
2024/01/17 22:43:12;;;;;;;26.67;17.00;;;;;;;;;;6124425;23;20071;-85
2024/01/17 22:45:39;;;;;;;21.42;15.48;;;;;;;;;;6100552;23;20096;-85
2024/01/17 22:48:06;;;;;;;21.30;15.32;;;;;;;;;;6100229;23;20072;-84
2024/01/17 22:50:35;;;;;;;20.77;15.15;;;;;;;;;;6099271;23;20027;-85
2024/01/17 22:53:02;;;;;;;20.48;14.75;;;;;;;;;;6100607;23;20009;-84
2024/01/17 22:55:31;;;;;;;21.55;14.48;;;;;;;;;;6125239;23;20067;-84
2024/01/17 22:58:00;;;;;;;20.02;15.10;;;;;;;;;;6125214;23;20012;-84
2024/01/17 23:00:28;;;;;;;19.67;14.15;;;;;;;;;;6125961;23;20021;-84
2024/01/17 23:02:57;;;;;;;17.00;13.68;;;;;;;;;;6099882;23;20020;-85
2024/01/17 23:05:24;;;;;;;17.08;13.90;;;;;;;;;;6099621;23;20028;-85
2024/01/17 23:07:51;;;;;;;19.02;15.02;;;;;;;;;;6097975;23;20017;-85
2024/01/17 23:10:19;;;;;;;22.55;14.13;;;;;;;;;;6099495;23;20024;-85
2024/01/17 23:12:46;;;;;;;21.15;14.38;;;;;;;;;;6122443;23;20528;-85
2024/01/17 23:15:14;;;;;;;17.13;14.05;;;;;;;;;;6124160;23;20028;-84
2024/01/17 23:17:41;;;;;;;17.98;13.40;;;;;;;;;;6146594;23;20740;-85
2024/01/17 23:20:08;;;;;;;21.00;14.35;;;;;;;;;;6099966;23;20020;-85
2024/01/17 23:22:35;;;;;;;19.02;13.98;;;;;;;;;;6147840;23;20017;-85
2024/01/17 23:25:03;;;;;;;16.27;13.30;;;;;;;;;;6123627;23;20044;-85
2024/01/17 23:27:31;;;;;;;17.75;13.20;;;;;;;;;;6129902;23;20020;-85
2024/01/17 23:29:58;;;;;;;18.45;12.65;;;;;;;;;;6153334;23;20035;-84
2024/01/17 23:32:25;;;;;;;16.90;13.43;;;;;;;;;;6130486;23;20095;-84
2024/01/17 23:34:52;;;;;;;20.70;14.73;;;;;;;;;;6152605;23;20051;-85
2024/01/17 23:37:20;;;;;;;16.27;13.90;;;;;;;;;;6153951;23;20013;-85
2024/01/17 23:39:47;;;;;;;20.08;13.90;;;;;;;;;;6127329;23;20075;-85
2024/01/17 23:42:14;;;;;;;15.63;12.93;;;;;;;;;;6155994;23;20103;-85
2024/01/17 23:44:41;;;;;;;18.63;13.80;;;;;;;;;;6128267;23;20020;-84
2024/01/17 23:47:09;;;;;;;18.07;13.50;;;;;;;;;;6130941;23;20023;-84
2024/01/17 23:49:36;;;;;;;19.43;14.17;;;;;;;;;;6151324;23;20016;-84
2024/01/17 23:52:03;;;;;;;16.27;13.37;;;;;;;;;;6129178;23;20256;-84
2024/01/17 23:54:31;;;;;;;17.95;14.02;;;;;;;;;;6153574;23;20017;-83
2024/01/17 23:56:58;;;;;;;15.53;13.13;;;;;;;;;;6153300;23;20017;-84
2024/01/17 23:59:26;;;;;;;17.93;13.23;;;;;;;;;;6152285;23;20032;-84
